Time;durP1;ratioP1;P1;durP2;ratioP2;P2;SDS_P1;SDS_P2;PMS_P1;PMS_P2;Temp;Humidity;BMP_temperature;BMP_pressure;BME280_temperature;BME280_humidity;BME280_pressure;Samples;Min_cycle;Max_cycle;Signal;HPM_P1;HPM_P2
2021/10/02 00:31:21;;;;;;;33.50;32.00;;;13.70;99.90;;;;;;6215859;23;20767;-88
2021/10/02 00:45:13;;;;;;;42.30;40.60;;;13.60;99.90;;;;;;6188106;23;20404;-89
2021/10/02 00:47:44;;;;;;;42.57;40.67;;;13.60;99.90;;;;;;6225926;23;20431;-87
2021/10/02 00:50:29;;;;;;;42.67;40.97;;;13.70;99.90;;;;;;6225463;23;20452;-87
2021/10/02 00:53:13;;;;;;;37.30;35.80;;;13.70;99.90;;;;;;6225970;23;20752;-90
2021/10/02 00:55:59;;;;;;;35.73;34.03;;;13.80;99.90;;;;;;6225558;23;20498;-88
2021/10/02 00:58:47;;;;;;;37.43;35.93;;;13.80;99.90;;;;;;6216374;23;20499;-90
2021/10/02 01:01:43;;;;;;;;;;;;;;;;;;;;;
2021/10/02 01:04:28;;;;;;;29.60;28.30;;;13.70;99.90;;;;;;6227243;23;20392;-90
2021/10/02 01:07:26;;;;;;;32.23;30.83;;;13.80;99.90;;;;;;6227339;23;20433;-88
2021/10/02 01:10:28;;;;;;;29.63;28.07;;;13.90;99.90;;;;;;6226727;23;20442;-88
2021/10/02 01:13:35;;;;;;;28.73;27.53;;;13.70;99.90;;;;;;6227212;23;20415;-89
2021/10/02 01:16:17;;;;;;;23.73;22.43;;;13.90;99.90;;;;;;6226674;23;20415;-89
2021/10/02 01:19:11;;;;;;;18.13;17.20;;;13.80;99.90;;;;;;6226578;23;20420;-89
2021/10/02 01:22:08;;;;;;;18.33;17.53;;;13.80;99.80;;;;;;6219919;23;20771;-88
2021/10/02 01:25:20;;;;;;;16.03;15.33;;;13.80;99.20;;;;;;6219453;23;20805;-89
2021/10/02 01:28:30;;;;;;;17.90;17.10;;;13.70;99.20;;;;;;6210751;23;20412;-89
2021/10/02 01:31:40;;;;;;;20.60;19.70;;;13.80;99.40;;;;;;6227116;23;20512;-89
2021/10/02 01:34:26;;;;;;;22.40;21.33;;;13.70;99.80;;;;;;6134412;23;20434;-89
2021/10/02 01:37:13;;;;;;;20.03;18.10;;;13.70;99.80;;;;;;6134349;23;20446;-90
2021/10/02 01:48:10;;;;;;;24.40;23.40;;;13.60;99.90;;;;;;6226112;23;20427;-89
2021/10/02 01:50:49;;;;;;;29.50;27.87;;;13.50;99.90;;;;;;6225827;23;20480;-89
2021/10/02 01:53:37;;;;;;;33.47;31.10;;;13.50;99.90;;;;;;6225972;23;20426;-89
2021/10/02 01:56:10;;;;;;;37.27;35.67;;;13.40;99.90;;;;;;6226644;23;20821;-89
2021/10/02 01:58:48;;;;;;;34.87;33.37;;;13.50;99.90;;;;;;6225689;23;20412;-88
2021/10/02 02:01:23;;;;;;;38.50;36.90;;;13.40;99.90;;;;;;6226110;23;20408;-88
2021/10/02 02:07:03;;;;;;;31.90;30.57;;;13.50;99.90;;;;;;6212771;23;20486;-88
2021/10/02 02:09:50;;;;;;;22.07;21.07;;;13.50;99.90;;;;;;6227690;23;20953;-87
2021/10/02 02:15:20;;;;;;;21.17;20.10;;;13.40;99.90;;;;;;6244010;23;20798;-88
2021/10/02 02:17:59;;;;;;;19.43;18.13;;;13.50;99.90;;;;;;6257425;22;20427;-88
2021/10/02 02:23:29;;;;;;;18.10;17.20;;;13.50;99.90;;;;;;6254726;23;20420;-89
2021/10/02 02:26:14;;;;;;;21.23;20.20;;;13.60;99.90;;;;;;6177641;23;20490;-89
2021/10/02 02:28:54;;;;;;;21.17;20.17;;;13.60;99.90;;;;;;6255151;23;20428;-88
2021/10/02 02:31:26;;;;;;;17.77;16.97;;;13.60;99.90;;;;;;6256464;23;20439;-88
2021/10/02 02:34:11;;;;;;;15.80;15.00;;;13.60;99.90;;;;;;6256769;23;20415;-89
2021/10/02 02:36:55;;;;;;;17.23;16.37;;;13.50;99.90;;;;;;6256402;23;20741;-89
2021/10/02 02:39:34;;;;;;;17.00;16.10;;;13.60;99.90;;;;;;6256256;23;20975;-89
2021/10/02 02:42:09;;;;;;;16.20;15.40;;;13.50;99.90;;;;;;6256758;23;20905;-89
2021/10/02 02:44:45;;;;;;;16.30;15.50;;;13.50;99.90;;;;;;6255233;22;20459;-87
2021/10/02 02:47:42;;;;;;;15.23;14.43;;;13.60;99.90;;;;;;6256240;23;20430;-90
2021/10/02 02:50:47;;;;;;;16.70;15.80;;;13.60;99.90;;;;;;6256348;22;20514;-88
2021/10/02 02:53:36;;;;;;;19.93;18.93;;;13.60;99.90;;;;;;6258209;23;20414;-88
2021/10/02 02:59:23;;;;;;;16.20;15.40;;;13.70;99.90;;;;;;6245622;22;20425;-90
2021/10/02 03:02:17;;;;;;;18.20;17.40;;;13.70;99.80;;;;;;6261182;23;20507;-88
2021/10/02 03:08:26;;;;;;;17.30;16.50;;;13.70;99.90;;;;;;6121137;23;20414;-84
2021/10/02 03:14:31;;;;;;;14.17;13.47;;;13.70;99.90;;;;;;6246167;23;21114;-89
2021/10/02 03:17:06;;;;;;;12.90;12.20;;;13.70;99.60;;;;;;6127847;23;20415;-88
2021/10/02 03:31:58;;;;;;;16.60;15.80;;;13.60;99.90;;;;;;6247383;22;20510;-90
2021/10/02 03:34:29;;;;;;;17.10;16.00;;;13.60;99.90;;;;;;6259345;23;20411;-89
2021/10/02 03:37:14;;;;;;;17.60;16.80;;;13.60;99.90;;;;;;6259995;23;20446;-88
2021/10/02 03:40:25;;;;;;;;;;;;;;;;;;;;;
2021/10/02 03:46:26;;;;;;;19.00;17.90;;;13.50;99.90;;;;;;6248034;23;20407;-88
2021/10/02 03:49:23;;;;;;;19.90;18.70;;;13.40;99.90;;;;;;6237655;23;20417;-89
2021/10/02 03:52:16;;;;;;;22.90;21.60;;;13.40;99.90;;;;;;6260573;23;20520;-88
2021/10/02 03:55:12;;;;;;;24.53;23.43;;;13.30;99.90;;;;;;6258359;23;20415;-89
2021/10/02 03:57:48;;;;;;;23.30;22.10;;;13.30;99.90;;;;;;6259048;23;20438;-90
2021/10/02 04:00:51;;;;;;;26.67;25.43;;;13.30;99.90;;;;;;6256185;23;20943;-89
2021/10/02 04:06:40;;;;;;;29.97;28.03;;;13.30;99.90;;;;;;6243734;23;20719;-88
2021/10/02 04:09:20;;;;;;;;;;;;;;;;;;;;;
2021/10/02 04:15:55;;;;;;;33.70;32.17;;;13.30;99.90;;;;;;6247794;23;20443;-90
2021/10/02 04:22:33;;;;;;;38.77;37.27;;;13.40;99.90;;;;;;6109474;23;20446;-88
2021/10/02 04:25:34;;;;;;;43.50;41.70;;;13.30;99.90;;;;;;6053687;23;20418;-87
2021/10/02 04:35:17;;;;;;;48.83;47.03;;;13.30;99.90;;;;;;6094650;23;20501;-89
2021/10/02 04:38:21;;;;;;;51.60;49.60;;;13.30;99.90;;;;;;6263102;22;20407;-89
2021/10/02 04:41:24;;;;;;;55.83;53.60;;;13.30;99.90;;;;;;6228586;22;20413;-87
2021/10/02 04:47:46;;;;;;;59.27;57.10;;;13.30;99.90;;;;;;6247977;22;20431;-89
2021/10/02 04:50:51;;;;;;;61.70;59.40;;;13.30;99.90;;;;;;6248174;23;20399;-89
2021/10/02 04:53:35;;;;;;;73.90;71.20;;;13.30;99.90;;;;;;6208558;23;20411;-88
2021/10/02 04:56:38;;;;;;;73.87;71.17;;;13.30;99.90;;;;;;6248213;23;20739;-88
2021/10/02 04:59:21;;;;;;;76.53;73.60;;;13.30;99.90;;;;;;6243657;23;20413;-90
2021/10/02 05:01:57;;;;;;;65.80;63.40;;;13.20;99.90;;;;;;6263209;23;20899;-87
2021/10/02 05:04:35;;;;;;;77.67;74.77;;;13.20;99.90;;;;;;6262847;23;20414;-89
2021/10/02 05:07:04;;;;;;;82.80;79.80;;;13.30;99.90;;;;;;6264089;23;20446;-89
2021/10/02 05:09:35;;;;;;;88.97;85.63;;;13.20;99.90;;;;;;6252375;23;20907;-89
2021/10/02 05:12:18;;;;;;;96.17;92.47;;;13.10;99.90;;;;;;6262747;23;20522;-88
2021/10/02 05:15:04;;;;;;;111.17;106.97;;;13.10;99.90;;;;;;6259558;23;20415;-89
2021/10/02 05:17:34;;;;;;;134.87;129.67;;;13.10;99.90;;;;;;6258487;23;20418;-87
2021/10/02 05:20:18;;;;;;;137.37;131.97;;;13.00;99.90;;;;;;6210705;22;20514;-89
2021/10/02 05:22:56;;;;;;;138.13;132.73;;;13.00;99.90;;;;;;6256104;23;20412;-90
2021/10/02 05:26:07;;;;;;;;;;;;;;;;;;;;;
2021/10/02 05:29:10;;;;;;;136.83;131.57;;;12.90;99.90;;;;;;6246022;23;20457;-89
2021/10/02 05:31:42;;;;;;;135.30;129.90;;;12.80;99.90;;;;;;6255037;23;20474;-90
2021/10/02 05:34:17;;;;;;;140.43;134.93;;;12.70;99.90;;;;;;6255840;23;20412;-90
2021/10/02 05:42:17;;;;;;;172.73;165.77;;;12.40;99.90;;;;;;6242610;23;20495;-90
2021/10/02 05:44:46;;;;;;;192.83;185.17;;;12.40;99.90;;;;;;6246648;23;20458;-88
2021/10/02 05:47:28;;;;;;;215.77;207.17;;;12.30;99.90;;;;;;6244966;23;20993;-86
2021/10/02 05:49:58;;;;;;;234.87;225.73;;;12.20;99.90;;;;;;6257813;23;20787;-88
2021/10/02 05:52:39;;;;;;;244.37;234.27;;;12.30;99.90;;;;;;6255172;23;20936;-89
2021/10/02 05:55:15;;;;;;;258.53;248.27;;;12.40;99.90;;;;;;6257472;23;20415;-88
2021/10/02 05:57:49;;;;;;;261.87;251.67;;;12.30;99.90;;;;;;6257447;23;20410;-89
2021/10/02 06:00:25;;;;;;;252.00;242.07;;;12.50;99.90;;;;;;6246944;23;20402;-88
2021/10/02 06:03:01;;;;;;;248.60;238.80;;;12.40;99.90;;;;;;6254679;23;20414;-87
2021/10/02 06:05:35;;;;;;;252.93;243.07;;;12.50;99.90;;;;;;6265616;23;20476;-86
2021/10/02 06:08:08;;;;;;;250.13;240.40;;;12.50;99.90;;;;;;6265335;23;20410;-87
2021/10/02 06:10:38;;;;;;;247.57;237.67;;;12.50;99.90;;;;;;6255658;23;20419;-88
2021/10/02 06:13:27;;;;;;;245.90;235.90;;;12.60;99.90;;;;;;6264459;23;20407;-88
2021/10/02 06:16:12;;;;;;;233.10;223.93;;;12.70;99.90;;;;;;6265140;23;20403;-89
2021/10/02 06:18:53;;;;;;;246.13;236.43;;;12.70;99.90;;;;;;6263868;23;20471;-88
2021/10/02 06:21:20;;;;;;;230.77;221.80;;;12.70;99.90;;;;;;6081275;23;4036391;-85
2021/10/02 06:23:52;;;;;;;215.90;207.60;;;12.80;99.90;;;;;;6247013;23;20240;-88
2021/10/02 06:26:38;;;;;;;199.50;192.00;;;12.90;99.90;;;;;;6257008;23;20403;-88
2021/10/02 06:29:30;;;;;;;190.80;183.40;;;12.90;99.90;;;;;;6228555;23;20414;-89
2021/10/02 06:32:08;;;;;;;166.67;160.00;;;13.00;99.90;;;;;;6212091;23;20467;-88
2021/10/02 06:34:55;;;;;;;164.27;157.90;;;13.20;99.90;;;;;;6257837;23;20407;-88
2021/10/02 06:37:27;;;;;;;148.60;142.80;;;13.30;99.90;;;;;;6247764;23;20399;-87
2021/10/02 06:43:24;;;;;;;88.37;84.87;;;13.40;99.90;;;;;;6208170;23;20418;-89
2021/10/02 06:45:51;;;;;;;89.50;86.07;;;13.80;99.90;;;;;;6258191;23;20435;-86
2021/10/02 06:48:45;;;;;;;75.93;73.07;;;13.80;99.90;;;;;;6248238;23;20403;-85
2021/10/02 06:51:13;;;;;;;51.93;49.67;;;14.10;99.90;;;;;;6261042;23;20423;-87
2021/10/02 06:53:49;;;;;;;40.47;38.87;;;14.10;99.90;;;;;;6229183;23;20419;-88
2021/10/02 06:56:25;;;;;;;30.07;28.53;;;14.20;99.90;;;;;;6257680;23;20722;-88
2021/10/02 06:58:53;;;;;;;28.03;26.83;;;14.20;99.90;;;;;;6257751;23;20403;-89
2021/10/02 07:01:34;;;;;;;;;;;;;;;;;;;;;
2021/10/02 07:04:00;;;;;;;21.87;20.87;;;14.20;99.90;;;;;;6257516;23;20395;-78
2021/10/02 07:06:27;;;;;;;17.80;16.90;;;14.20;99.90;;;;;;6247225;23;20490;-81
2021/10/02 07:08:56;;;;;;;20.40;19.50;;;14.20;99.90;;;;;;6247328;23;20776;-86
2021/10/02 07:11:31;;;;;;;24.20;23.07;;;14.30;99.90;;;;;;6247024;23;20496;-85
2021/10/02 07:14:05;;;;;;;25.10;24.00;;;14.40;99.90;;;;;;6255916;23;20423;-85
2021/10/02 07:16:38;;;;;;;18.83;18.03;;;14.50;99.90;;;;;;6257193;23;20417;-86
2021/10/02 07:19:15;;;;;;;18.53;17.33;;;14.60;99.90;;;;;;6247202;23;20718;-84
2021/10/02 07:24:33;;;;;;;15.63;14.93;;;14.80;99.60;;;;;;6241875;23;20522;-88
2021/10/02 07:27:11;;;;;;;17.60;16.80;;;14.80;99.90;;;;;;6257200;23;20408;-87
2021/10/02 07:29:42;;;;;;;14.90;14.10;;;14.80;98.30;;;;;;6256174;23;20396;-86
2021/10/02 07:32:25;;;;;;;13.30;12.33;;;15.00;97.90;;;;;;6244761;23;20439;-86
2021/10/02 07:34:56;;;;;;;8.10;7.43;;;15.10;96.80;;;;;;6255008;23;20419;-85
2021/10/02 07:37:23;;;;;;;8.07;7.47;;;15.40;95.60;;;;;;6255006;23;20409;-87
2021/10/02 07:40:11;;;;;;;7.77;6.97;;;15.50;93.70;;;;;;6245570;23;20403;-88
2021/10/02 07:49:06;;;;;;;6.13;5.53;;;15.70;91.90;;;;;;6202943;23;21262;-87
2021/10/02 07:51:34;;;;;;;7.87;7.37;;;15.80;92.10;;;;;;6230296;23;20437;-79
2021/10/02 07:54:06;;;;;;;9.30;7.13;;;15.80;91.70;;;;;;6257471;23;20893;-86
2021/10/02 07:56:51;;;;;;;8.10;7.50;;;15.70;90.90;;;;;;6257167;23;20795;-87
2021/10/02 07:59:26;;;;;;;8.02;7.35;;;15.70;91.60;;;;;;6244145;23;20443;-86
2021/10/02 08:02:35;;;;;;;5.50;5.00;;;15.70;91.10;;;;;;6256489;23;20532;-87
2021/10/02 08:05:22;;;;;;;5.03;3.97;;;15.50;89.70;;;;;;6221124;23;20415;-86
2021/10/02 08:08:05;;;;;;;5.40;4.90;;;15.40;90.30;;;;;;6246060;23;20964;-85
2021/10/02 08:10:34;;;;;;;10.43;5.97;;;15.30;91.30;;;;;;6256794;23;20413;-87
2021/10/02 08:13:11;;;;;;;;;;;;;;;;;;;;;
2021/10/02 08:15:38;;;;;;;7.30;6.33;;;15.10;91.60;;;;;;6245023;23;20493;-88
2021/10/02 08:18:13;;;;;;;8.43;7.90;;;15.20;92.40;;;;;;6256335;23;20780;-87
2021/10/02 08:21:08;;;;;;;7.17;6.67;;;15.60;91.40;;;;;;6256684;23;20437;-88
2021/10/02 08:23:50;;;;;;;;;;;;;;;;;;;;;
2021/10/02 08:26:27;;;;;;;5.07;4.47;;;16.00;89.50;;;;;;6246021;23;20413;-88
2021/10/02 08:29:28;;;;;;;6.93;5.23;;;16.20;82.70;;;;;;6255036;23;20429;-87
2021/10/02 08:31:58;;;;;;;3.33;2.63;;;16.40;82.80;;;;;;6256557;23;20492;-87
2021/10/02 08:34:47;;;;;;;;;;;;;;;;;;;;;
2021/10/02 08:37:25;;;;;;;4.67;2.53;;;16.40;77.70;;;;;;6246136;23;20495;-86
2021/10/02 08:40:02;;;;;;;4.43;2.30;;;16.30;74.90;;;;;;6256091;23;20953;-87
2021/10/02 08:42:48;;;;;;;3.23;1.90;;;16.20;77.40;;;;;;6256172;23;20926;-88
2021/10/02 08:45:52;;;;;;;3.33;1.90;;;16.00;76.80;;;;;;6254836;23;20487;-88
2021/10/02 08:48:21;;;;;;;4.07;2.63;;;15.90;78.30;;;;;;6092727;23;20426;-88
2021/10/02 08:53:57;;;;;;;5.30;4.80;;;16.10;82.10;;;;;;6234072;23;20464;-89
2021/10/02 08:56:35;;;;;;;4.80;3.63;;;16.60;83.00;;;;;;6256642;23;20412;-90
2021/10/02 08:59:11;;;;;;;5.63;3.67;;;16.90;81.60;;;;;;6254657;23;20741;-88
2021/10/02 09:01:54;;;;;;;4.90;3.80;;;17.10;79.80;;;;;;6256323;23;20909;-89
2021/10/02 09:04:32;;;;;;;5.87;2.97;;;17.60;76.60;;;;;;6255726;23;20417;-89
2021/10/02 09:07:11;;;;;;;4.03;3.07;;;17.80;75.00;;;;;;6256440;23;20807;-87
2021/10/02 09:10:01;;;;;;;6.03;3.67;;;18.00;70.90;;;;;;6246134;23;20408;-87
2021/10/02 09:16:01;;;;;;;4.70;2.97;;;18.90;66.10;;;;;;6233767;23;20402;-88
2021/10/02 09:18:48;;;;;;;4.60;2.10;;;19.30;61.20;;;;;;6255558;23;20494;-90
2021/10/02 09:28:37;;;;;;;7.20;2.80;;;19.20;59.50;;;;;;6229948;23;20418;-90
2021/10/02 09:38:10;;;;;;;9.07;3.37;;;18.10;63.20;;;;;;6171842;23;20417;-90
2021/10/02 09:40:50;;;;;;;5.17;3.17;;;18.00;65.20;;;;;;6175793;23;20723;-90
2021/10/02 09:43:20;;;;;;;5.93;3.90;;;17.60;67.40;;;;;;6192506;23;20412;-89
2021/10/02 09:48:55;;;;;;;5.03;3.30;;;17.70;66.40;;;;;;6185072;23;20447;-88
2021/10/02 09:54:49;;;;;;;5.90;3.17;;;18.40;63.30;;;;;;6182318;23;20446;-86
2021/10/02 09:57:46;;;;;;;;;;;;;;;;;;;;;
2021/10/02 10:00:26;;;;;;;4.60;3.07;;;19.20;59.20;;;;;;6193149;23;20432;-86
2021/10/02 10:03:30;;;;;;;6.23;3.33;;;19.30;57.50;;;;;;6195299;23;20477;-88
2021/10/02 10:06:44;;;;;;;5.73;3.10;;;19.60;58.20;;;;;;6107283;23;20416;-87
2021/10/02 10:12:33;;;;;;;4.97;2.30;;;19.50;55.90;;;;;;6180158;23;20531;-86
2021/10/02 10:21:31;;;;;;;5.60;1.80;;;18.70;55.50;;;;;;6184625;23;20459;-87
2021/10/02 10:24:48;;;;;;;;;;;;;;;;;;;;;
2021/10/02 10:30:58;;;;;;;4.20;2.10;;;18.30;60.20;;;;;;6174692;23;20743;-87
2021/10/02 10:34:08;;;;;;;5.20;2.00;;;18.70;57.80;;;;;;6147610;23;20462;-87
2021/10/02 10:40:22;;;;;;;5.03;1.90;;;19.10;55.10;;;;;;6160078;23;20902;-87
2021/10/02 10:43:32;;;;;;;4.27;2.00;;;19.30;52.60;;;;;;6197053;23;20421;-88
2021/10/02 10:46:40;;;;;;;;;;;;;;;;;;;;;
2021/10/02 10:52:59;;;;;;;;;;;;;;;;;;;;;
2021/10/02 11:00:08;;;;;;;;;;;;;;;;;;;;;
2021/10/02 11:37:59;;;;;;;;;;;;;;;;;;;;;
2021/10/02 11:41:23;;;;;;;3.67;1.00;;;18.90;44.40;;;;;;6060883;23;20417;-86
2021/10/02 11:48:08;;;;;;;;;;;;;;;;;;;;;
2021/10/02 11:51:11;;;;;;;3.27;0.97;;;18.90;43.30;;;;;;6075775;23;20420;-86
2021/10/02 11:54:36;;;;;;;;;;;;;;;;;;;;;
2021/10/02 11:57:54;;;;;;;2.90;0.80;;;19.60;41.50;;;;;;6075853;23;20404;-86
2021/10/02 12:09:52;;;;;;;3.13;0.97;;;20.30;36.50;;;;;;6006568;22;20428;-85
2021/10/02 12:19:23;;;;;;;;;;;;;;;;;;;;;
2021/10/02 12:22:56;;;;;;;;;;;;;;;;;;;;;
2021/10/02 12:25:58;;;;;;;;;;;;;;;;;;;;;
2021/10/02 12:29:17;;;;;;;4.03;1.23;;;19.30;41.30;;;;;;6173151;23;20466;-86
2021/10/02 12:32:15;;;;;;;3.57;1.20;;;19.20;43.10;;;;;;6245368;22;20419;-86
2021/10/02 12:35:17;;;;;;;;;;;;;;;;;;;;;
2021/10/02 12:38:13;;;;;;;4.33;1.23;;;19.30;40.90;;;;;;6256506;23;20736;-85
2021/10/02 12:41:05;;;;;;;3.63;1.47;;;19.40;41.90;;;;;;6256132;23;20476;-86
2021/10/02 12:44:06;;;;;;;3.50;1.20;;;19.40;41.90;;;;;;6241854;23;20500;-84
2021/10/02 12:47:13;;;;;;;3.57;1.37;;;19.40;41.50;;;;;;6200300;23;20742;-86
2021/10/02 12:52:58;;;;;;;4.63;1.53;;;19.60;40.00;;;;;;6244542;22;20411;-85
2021/10/02 12:55:40;;;;;;;3.60;1.43;;;19.70;39.10;;;;;;6256576;23;20452;-86
2021/10/02 13:01:25;;;;;;;3.70;1.40;;;19.70;39.30;;;;;;6245442;22;20406;-85
2021/10/02 13:04:30;;;;;;;5.03;1.80;;;19.70;38.00;;;;;;6256332;23;20404;-84
2021/10/02 13:07:43;;;;;;;5.03;1.40;;;19.70;35.10;;;;;;6243172;23;20478;-86
2021/10/02 13:10:25;;;;;;;6.30;1.53;;;20.10;34.00;;;;;;6255642;23;20440;-86
2021/10/02 13:13:26;;;;;;;3.80;1.33;;;20.40;34.50;;;;;;6245815;23;20443;-84
2021/10/02 13:26:18;;;;;;;4.50;1.40;;;19.90;35.20;;;;;;6211358;23;20417;-85
2021/10/02 13:32:51;;;;;;;5.97;1.50;;;19.50;37.60;;;;;;6092857;23;20420;-85
2021/10/02 13:35:33;;;;;;;4.60;1.30;;;19.60;37.50;;;;;;6093135;23;20919;-86
2021/10/02 13:38:49;;;;;;;3.73;1.37;;;19.50;36.00;;;;;;6094074;23;20411;-85
2021/10/02 13:45:58;;;;;;;;;;;;;;;;;;;;;
2021/10/02 14:01:34;;;;;;;;;;;;;;;;;;;;;
2021/10/02 14:08:13;;;;;;;3.60;1.23;;;19.10;31.30;;;;;;6120362;23;20418;-86
2021/10/02 14:21:31;;;;;;;5.27;1.73;;;19.10;31.80;;;;;;6093732;23;20440;-85
2021/10/02 14:27:37;;;;;;;5.47;1.87;;;18.80;31.20;;;;;;6222946;23;20930;-86
2021/10/02 14:30:23;;;;;;;5.73;1.33;;;18.70;33.80;;;;;;6223944;23;20486;-85
2021/10/02 14:33:19;;;;;;;;;;;;;;;;;;;;;
2021/10/02 14:35:56;;;;;;;5.27;1.70;;;18.50;33.90;;;;;;6123411;23;20416;-86
2021/10/02 14:38:38;;;;;;;4.70;1.40;;;18.50;35.90;;;;;;6225243;23;20419;-85
2021/10/02 14:44:41;;;;;;;5.53;1.80;;;18.60;38.20;;;;;;6207464;23;20833;-85
2021/10/02 14:47:34;;;;;;;7.13;1.40;;;18.60;38.50;;;;;;6225128;23;20418;-85
2021/10/02 14:53:04;;;;;;;4.03;1.50;;;18.30;37.40;;;;;;6213680;23;20418;-84
2021/10/02 14:55:47;;;;;;;5.27;1.57;;;18.40;38.00;;;;;;6227307;23;20419;-86
2021/10/02 14:58:36;;;;;;;4.10;1.70;;;18.40;37.30;;;;;;6227176;23;20430;-84
2021/10/02 15:01:22;;;;;;;6.43;1.60;;;18.40;38.40;;;;;;6227085;23;20505;-85
2021/10/02 15:03:59;;;;;;;3.87;1.60;;;18.30;38.50;;;;;;6227118;23;20438;-85
2021/10/02 15:06:29;;;;;;;4.67;1.70;;;18.20;39.70;;;;;;6226352;23;20500;-85
2021/10/02 15:09:12;;;;;;;6.57;2.17;;;18.20;40.00;;;;;;6216622;23;20409;-84
2021/10/02 15:11:44;;;;;;;4.80;1.77;;;18.10;40.40;;;;;;6227004;23;20501;-83
2021/10/02 15:14:12;;;;;;;6.97;2.03;;;18.20;40.40;;;;;;6214913;23;20753;-77
2021/10/02 15:23:15;;;;;;;6.03;1.60;;;18.20;41.40;;;;;;6037383;23;20415;-83
2021/10/02 15:25:47;;;;;;;5.87;1.63;;;18.00;42.50;;;;;;6046808;23;20427;-84
2021/10/02 15:38:42;;;;;;;;;;;;;;;;;;;;;
2021/10/02 15:42:05;;;;;;;6.00;2.70;;;17.50;45.30;;;;;;6055480;23;20428;-83
2021/10/02 15:54:09;;;;;;;5.70;4.63;;;17.50;47.90;;;;;;6056360;23;20454;-84
2021/10/02 15:56:40;;;;;;;8.30;5.60;;;17.30;48.60;;;;;;6157640;23;20783;-85
2021/10/02 15:59:11;;;;;;;5.10;2.37;;;17.30;49.00;;;;;;6194929;23;20413;-85
2021/10/02 16:09:06;;;;;;;5.37;2.20;;;17.30;49.90;;;;;;6122317;23;20424;-83
2021/10/02 16:12:20;;;;;;;;;;;;;;;;;;;;;
2021/10/02 16:18:27;;;;;;;;;;;;;;;;;;;;;
2021/10/02 16:21:22;;;;;;;;;;;;;;;;;;;;;
2021/10/02 16:27:22;;;;;;;8.10;2.67;;;17.00;53.50;;;;;;6120796;23;20512;-83
2021/10/02 16:34:00;;;;;;;7.43;3.50;;;16.80;54.10;;;;;;6097695;23;20422;-86
2021/10/02 16:36:49;;;;;;;7.80;2.10;;;16.80;54.20;;;;;;6133717;23;20498;-86
2021/10/02 16:42:57;;;;;;;7.80;4.30;;;16.80;55.20;;;;;;6210443;23;20434;-86
2021/10/02 17:08:30;;;;;;;;;;;;;;;;;;;;;
2021/10/02 17:24:48;;;;;;;9.43;3.17;;;16.30;64.20;;;;;;6041789;23;20475;-84
2021/10/02 17:27:20;;;;;;;6.37;3.00;;;16.20;66.70;;;;;;6223046;23;20501;-85
2021/10/02 17:29:50;;;;;;;4.50;3.30;;;16.10;69.20;;;;;;6243160;23;20400;-85
2021/10/02 17:32:33;;;;;;;;;;;;;;;;;;;;;
2021/10/02 17:35:09;;;;;;;5.73;4.30;;;15.70;74.30;;;;;;6254911;23;20489;-86
2021/10/02 17:45:04;;;;;;;;;;;;;;;;;;;;;
2021/10/02 17:51:08;;;;;;;;;;;;;;;;;;;;;
2021/10/02 18:19:06;;;;;;;76.53;73.47;;;14.90;99.90;;;;;;6147821;23;20457;-85
2021/10/02 18:31:55;;;;;;;142.40;137.07;;;14.90;99.90;;;;;;6066131;23;20422;-85
2021/10/02 19:09:03;;;;;;;137.57;132.50;;;15.10;99.90;;;;;;6120047;23;20419;-84
2021/10/02 19:12:12;;;;;;;155.73;149.47;;;15.00;99.90;;;;;;6082767;23;20428;-85
2021/10/02 19:18:02;;;;;;;151.30;145.30;;;15.00;99.90;;;;;;6194078;23;20409;-84
2021/10/02 19:21:03;;;;;;;;;;;;;;;;;;;;;
2021/10/02 19:29:44;;;;;;;187.33;180.57;;;14.90;99.90;;;;;;6243565;23;20416;-84
2021/10/02 19:42:41;;;;;;;145.70;140.40;;;14.90;99.90;;;;;;6153351;23;20441;-85
2021/10/02 19:45:11;;;;;;;119.90;115.40;;;14.90;99.90;;;;;;6152286;23;20418;-84
2021/10/02 19:47:56;;;;;;;112.43;108.13;;;15.00;99.90;;;;;;6163906;23;20481;-85
2021/10/02 19:50:58;;;;;;;115.70;111.20;;;15.10;99.90;;;;;;6163251;23;20935;-85
2021/10/02 19:53:54;;;;;;;99.70;96.10;;;14.90;99.90;;;;;;6196334;23;20409;-86
2021/10/02 19:56:51;;;;;;;;;;;;;;;;;;;;;
2021/10/02 20:00:05;;;;;;;;;;;;;;;;;;;;;
2021/10/02 20:06:01;;;;;;;14.30;13.40;;;15.50;98.30;;;;;;6008689;23;20463;-84
2021/10/02 20:08:37;;;;;;;10.17;9.30;;;15.80;94.60;;;;;;6101091;23;20503;-86
2021/10/02 20:14:12;;;;;;;8.77;6.00;;;16.00;92.20;;;;;;6091760;23;20906;-84
2021/10/02 20:20:13;;;;;;;10.27;7.10;;;16.30;90.20;;;;;;6056421;23;20541;-86
2021/10/02 20:29:33;;;;;;;;;;;;;;;;;;;;;
2021/10/02 20:38:27;;;;;;;6.67;5.40;;;16.60;83.00;;;;;;6256946;23;20726;-84
2021/10/02 20:44:36;;;;;;;;;;;;;;;;;;;;;
2021/10/02 20:51:15;;;;;;;6.53;4.23;;;17.20;76.20;;;;;;6211117;23;20409;-85
